Saint Augustine, FL

8:23 AM EST on December 29, 2014 (GMT -0500)
MARITIME | Change Station
CLOSE
Current Station
Personal Weather Station
Location: Saint Augustine, FL
Elevation: 0 ft
Nearby Weather Stations
Active Advisory: Special Statement

Elev 0 ft 29.86 °N, 81.26 °W | Updated 23 minutes ago

Fog
Fog
64 °F
Feels Like 64 °F
N
6
Wind Variable Wind from West
Gusts 8.0 mph

Today
High -- | Low -- °F
--% Chance of Precip.
Yesterday
High -- | Low -- °F
Precip. -- in
7:19 AM 5:34 PM
First Quarter, 59% visible
Pressure 30.12 in
Visibility 1.5 miles
Clouds Overcast 200 ft
Dew Point 63 °F
Humidity 97%
Rainfall -999.00 in
Snow Depth Not available.
UV 0 out of 12
Pollen 2.40 out of 12
Air Quality Not available.
Flu Activity Not available.
SPECI KSGJ 291312Z 24005KT 1 1/2SM BR OVC002 18/18 A3012 RMK AO2

More Conditions Fewer Conditions

Pressure 30.12 in
Visibility 1.5 miles
Clouds Overcast 200 ft
Dew Point 63 °F
Humidity 97%
Rainfall -999.00 in
Snow Depth Not available.
UV 0 out of 12
Pollen 2.40 out of 12
Air Quality Not available.
Flu Activity Not available.
SPECI KSGJ 291312Z 24005KT 1 1/2SM BR OVC002 18/18 A3012 RMK AO2

More Conditions Fewer Conditions

10-Day Weather Forecast

Almanac

Astronomy

Dec. 29, 2014 Rise Set
Actual Time
Civil Twilight
Nautical Twilight
Astronomical Twilight
Moon
Length of Visible Light
Length of Day
Tomorrow will be .
, % of the Moon is Illuminated

Today's Extremes

State Highs State Lows

Community

WunderPhotos

Upload Photos

1,781,579 photos uploaded!

WunderBlogs® & News

Nearby

Air Quality

  Air Quality AQ Index Pollutant
Not available.

Snow Depth

Station Depth Elevation

Earthquake Activity

City Distance Mag. Time & Date
Minimum magnitude displayed is 2.5.

Coastal Water Temperatures

Place Temperature

Nearby Weather Stations